sensor_id;sensor_type;location;lat;lon;timestamp;temperature;humidity
73438;DHT22;62744;56.802;23.964;2022-12-08T00:01:29;0.60;99.80
73438;DHT22;62744;56.802;23.964;2022-12-08T00:03:58;0.60;99.50
73438;DHT22;62744;56.802;23.964;2022-12-08T00:06:31;0.60;99.70
73438;DHT22;62744;56.802;23.964;2022-12-08T00:09:21;0.70;99.80
73438;DHT22;62744;56.802;23.964;2022-12-08T00:11:58;0.80;99.80
73438;DHT22;62744;56.802;23.964;2022-12-08T00:14:31;0.70;99.70
73438;DHT22;62744;56.802;23.964;2022-12-08T00:16:59;0.80;99.50
73438;DHT22;62744;56.802;23.964;2022-12-08T00:19:27;0.60;99.40
73438;DHT22;62744;56.802;23.964;2022-12-08T00:21:56;0.60;99.20
73438;DHT22;62744;56.802;23.964;2022-12-08T00:24:29;0.50;99.30
73438;DHT22;62744;56.802;23.964;2022-12-08T00:26:56;0.60;99.60
73438;DHT22;62744;56.802;23.964;2022-12-08T00:29:24;0.80;99.40
73438;DHT22;62744;56.802;23.964;2022-12-08T00:31:52;0.80;99.00
73438;DHT22;62744;56.802;23.964;2022-12-08T00:34:20;0.90;99.20
73438;DHT22;62744;56.802;23.964;2022-12-08T00:36:47;0.50;99.20
73438;DHT22;62744;56.802;23.964;2022-12-08T00:39:16;0.50;99.30
73438;DHT22;62744;56.802;23.964;2022-12-08T00:41:44;0.60;99.30
73438;DHT22;62744;56.802;23.964;2022-12-08T00:44:30;0.60;99.10
73438;DHT22;62744;56.802;23.964;2022-12-08T00:46:57;0.60;99.10
73438;DHT22;62744;56.802;23.964;2022-12-08T00:49:25;0.70;99.10
73438;DHT22;62744;56.802;23.964;2022-12-08T00:51:53;0.80;99.00
73438;DHT22;62744;56.802;23.964;2022-12-08T00:54:21;0.60;98.70
73438;DHT22;62744;56.802;23.964;2022-12-08T00:56:49;0.70;98.90
73438;DHT22;62744;56.802;23.964;2022-12-08T00:59:17;0.80;98.90
73438;DHT22;62744;56.802;23.964;2022-12-08T01:01:46;0.80;98.90
73438;DHT22;62744;56.802;23.964;2022-12-08T01:04:15;0.80;98.80
73438;DHT22;62744;56.802;23.964;2022-12-08T01:06:44;1.00;98.60
73438;DHT22;62744;56.802;23.964;2022-12-08T01:09:13;0.70;98.60
73438;DHT22;62744;56.802;23.964;2022-12-08T01:11:41;1.00;98.70
73438;DHT22;62744;56.802;23.964;2022-12-08T01:14:11;0.60;98.70
73438;DHT22;62744;56.802;23.964;2022-12-08T01:16:39;0.80;98.80
73438;DHT22;62744;56.802;23.964;2022-12-08T01:19:13;0.70;98.80
73438;DHT22;62744;56.802;23.964;2022-12-08T01:21:42;0.70;98.70
73438;DHT22;62744;56.802;23.964;2022-12-08T01:24:13;0.60;98.80
73438;DHT22;62744;56.802;23.964;2022-12-08T01:26:41;0.60;98.70
73438;DHT22;62744;56.802;23.964;2022-12-08T01:29:09;0.90;98.90
73438;DHT22;62744;56.802;23.964;2022-12-08T01:31:38;0.60;98.90
73438;DHT22;62744;56.802;23.964;2022-12-08T01:34:06;0.80;98.90
73438;DHT22;62744;56.802;23.964;2022-12-08T01:36:35;0.70;98.60
73438;DHT22;62744;56.802;23.964;2022-12-08T01:39:13;0.60;98.60
73438;DHT22;62744;56.802;23.964;2022-12-08T01:41:42;0.70;98.40
73438;DHT22;62744;56.802;23.964;2022-12-08T01:46:42;0.80;98.60
73438;DHT22;62744;56.802;23.964;2022-12-08T01:49:14;0.70;98.70
73438;DHT22;62744;56.802;23.964;2022-12-08T01:51:45;0.70;98.80
73438;DHT22;62744;56.802;23.964;2022-12-08T01:54:15;0.70;98.70
73438;DHT22;62744;56.802;23.964;2022-12-08T01:59:21;0.90;98.40
73438;DHT22;62744;56.802;23.964;2022-12-08T02:01:51;0.90;98.80
73438;DHT22;62744;56.802;23.964;2022-12-08T02:04:19;0.70;98.70
73438;DHT22;62744;56.802;23.964;2022-12-08T02:06:47;0.80;98.70
73438;DHT22;62744;56.802;23.964;2022-12-08T02:09:15;0.60;98.70
73438;DHT22;62744;56.802;23.964;2022-12-08T02:11:43;0.70;98.80
73438;DHT22;62744;56.802;23.964;2022-12-08T02:14:12;0.60;98.80
73438;DHT22;62744;56.802;23.964;2022-12-08T02:16:53;0.70;98.90
73438;DHT22;62744;56.802;23.964;2022-12-08T02:25:51;0.70;99.00
73438;DHT22;62744;56.802;23.964;2022-12-08T02:40:03;0.50;99.50
73438;DHT22;62744;56.802;23.964;2022-12-08T02:42:39;0.70;99.40
73438;DHT22;62744;56.802;23.964;2022-12-08T02:47:39;0.70;99.30
73438;DHT22;62744;56.802;23.964;2022-12-08T02:50:08;0.40;99.70
73438;DHT22;62744;56.802;23.964;2022-12-08T02:52:46;0.60;99.50
73438;DHT22;62744;56.802;23.964;2022-12-08T02:55:23;0.50;99.70
73438;DHT22;62744;56.802;23.964;2022-12-08T02:58:45;0.50;99.70
73438;DHT22;62744;56.802;23.964;2022-12-08T03:04:07;0.60;99.60
73438;DHT22;62744;56.802;23.964;2022-12-08T03:07:01;0.60;99.40
73438;DHT22;62744;56.802;23.964;2022-12-08T03:09:52;0.60;99.80
73438;DHT22;62744;56.802;23.964;2022-12-08T03:12:43;0.50;99.30
73438;DHT22;62744;56.802;23.964;2022-12-08T03:15:14;0.50;99.60
73438;DHT22;62744;56.802;23.964;2022-12-08T03:17:46;0.70;99.80
73438;DHT22;62744;56.802;23.964;2022-12-08T03:20:19;0.60;99.60
73438;DHT22;62744;56.802;23.964;2022-12-08T03:22:49;0.60;99.70
73438;DHT22;62744;56.802;23.964;2022-12-08T03:25:20;0.50;99.90
73438;DHT22;62744;56.802;23.964;2022-12-08T03:27:49;0.60;99.90
73438;DHT22;62744;56.802;23.964;2022-12-08T03:30:17;0.70;99.90
73438;DHT22;62744;56.802;23.964;2022-12-08T03:33:12;0.70;99.60
73438;DHT22;62744;56.802;23.964;2022-12-08T03:35:42;0.60;99.60
73438;DHT22;62744;56.802;23.964;2022-12-08T03:38:13;0.60;99.40
73438;DHT22;62744;56.802;23.964;2022-12-08T03:40:42;0.90;99.30
73438;DHT22;62744;56.802;23.964;2022-12-08T03:43:10;0.50;99.60
73438;DHT22;62744;56.802;23.964;2022-12-08T03:45:37;0.60;99.40
73438;DHT22;62744;56.802;23.964;2022-12-08T03:48:05;0.70;99.20
73438;DHT22;62744;56.802;23.964;2022-12-08T03:50:33;0.60;99.30
73438;DHT22;62744;56.802;23.964;2022-12-08T03:53:00;0.60;99.40
73438;DHT22;62744;56.802;23.964;2022-12-08T03:55:28;0.60;99.60
73438;DHT22;62744;56.802;23.964;2022-12-08T03:57:55;0.60;99.30
73438;DHT22;62744;56.802;23.964;2022-12-08T04:00:23;0.60;99.30
73438;DHT22;62744;56.802;23.964;2022-12-08T04:02:51;0.50;99.10
73438;DHT22;62744;56.802;23.964;2022-12-08T04:05:18;0.60;98.90
73438;DHT22;62744;56.802;23.964;2022-12-08T04:07:46;0.60;98.80
73438;DHT22;62744;56.802;23.964;2022-12-08T04:10:14;0.50;98.80
73438;DHT22;62744;56.802;23.964;2022-12-08T04:12:41;0.60;98.70
73438;DHT22;62744;56.802;23.964;2022-12-08T04:15:09;0.70;98.60
73438;DHT22;62744;56.802;23.964;2022-12-08T04:17:37;0.60;98.50
73438;DHT22;62744;56.802;23.964;2022-12-08T04:20:05;0.80;98.70
73438;DHT22;62744;56.802;23.964;2022-12-08T04:22:33;0.50;98.70
73438;DHT22;62744;56.802;23.964;2022-12-08T04:25:01;0.70;98.80
73438;DHT22;62744;56.802;23.964;2022-12-08T04:27:28;0.70;98.50
73438;DHT22;62744;56.802;23.964;2022-12-08T04:29:56;0.60;98.40
73438;DHT22;62744;56.802;23.964;2022-12-08T04:32:23;0.60;98.60
73438;DHT22;62744;56.802;23.964;2022-12-08T04:34:51;0.50;98.90
73438;DHT22;62744;56.802;23.964;2022-12-08T04:37:19;0.90;98.50
73438;DHT22;62744;56.802;23.964;2022-12-08T04:39:46;0.60;99.00
73438;DHT22;62744;56.802;23.964;2022-12-08T04:42:14;0.70;98.80
73438;DHT22;62744;56.802;23.964;2022-12-08T04:44:41;0.60;98.90
73438;DHT22;62744;56.802;23.964;2022-12-08T04:47:08;0.60;98.60
73438;DHT22;62744;56.802;23.964;2022-12-08T04:49:36;0.90;98.70
73438;DHT22;62744;56.802;23.964;2022-12-08T04:52:04;0.50;98.90
73438;DHT22;62744;56.802;23.964;2022-12-08T04:54:32;0.60;98.90
73438;DHT22;62744;56.802;23.964;2022-12-08T04:56:59;0.60;98.80
73438;DHT22;62744;56.802;23.964;2022-12-08T04:59:27;0.50;99.20
73438;DHT22;62744;56.802;23.964;2022-12-08T05:01:56;0.70;99.60
73438;DHT22;62744;56.802;23.964;2022-12-08T05:04:24;0.80;99.80
73438;DHT22;62744;56.802;23.964;2022-12-08T05:06:52;0.80;99.60
73438;DHT22;62744;56.802;23.964;2022-12-08T05:09:19;0.70;99.40
73438;DHT22;62744;56.802;23.964;2022-12-08T05:11:47;0.60;99.50
73438;DHT22;62744;56.802;23.964;2022-12-08T05:14:16;0.60;99.20
73438;DHT22;62744;56.802;23.964;2022-12-08T05:16:45;0.70;99.40
73438;DHT22;62744;56.802;23.964;2022-12-08T05:19:13;0.60;99.20
73438;DHT22;62744;56.802;23.964;2022-12-08T05:21:42;0.70;99.50
73438;DHT22;62744;56.802;23.964;2022-12-08T05:24:09;0.70;99.50
73438;DHT22;62744;56.802;23.964;2022-12-08T05:26:37;0.50;99.50
73438;DHT22;62744;56.802;23.964;2022-12-08T05:29:04;0.70;99.50
73438;DHT22;62744;56.802;23.964;2022-12-08T05:31:32;0.80;98.80
73438;DHT22;62744;56.802;23.964;2022-12-08T05:34:01;0.50;98.20
73438;DHT22;62744;56.802;23.964;2022-12-08T05:36:29;0.60;97.60
73438;DHT22;62744;56.802;23.964;2022-12-08T05:38:57;0.60;97.20
73438;DHT22;62744;56.802;23.964;2022-12-08T05:41:24;0.50;97.20
73438;DHT22;62744;56.802;23.964;2022-12-08T05:43:52;0.40;96.60
73438;DHT22;62744;56.802;23.964;2022-12-08T05:46:20;0.60;96.20
73438;DHT22;62744;56.802;23.964;2022-12-08T05:48:47;0.70;96.30
73438;DHT22;62744;56.802;23.964;2022-12-08T05:51:22;0.50;96.30
73438;DHT22;62744;56.802;23.964;2022-12-08T05:53:51;0.40;94.90
73438;DHT22;62744;56.802;23.964;2022-12-08T05:56:20;0.40;95.40
73438;DHT22;62744;56.802;23.964;2022-12-08T05:58:48;0.30;95.20
73438;DHT22;62744;56.802;23.964;2022-12-08T06:01:27;0.30;95.50
73438;DHT22;62744;56.802;23.964;2022-12-08T06:03:57;0.20;95.30
73438;DHT22;62744;56.802;23.964;2022-12-08T06:06:26;0.00;95.60
73438;DHT22;62744;56.802;23.964;2022-12-08T06:08:54;0.00;95.80
73438;DHT22;62744;56.802;23.964;2022-12-08T06:11:24;0.10;95.60
73438;DHT22;62744;56.802;23.964;2022-12-08T06:13:52;0.00;95.70
73438;DHT22;62744;56.802;23.964;2022-12-08T06:16:19;0.20;94.90
73438;DHT22;62744;56.802;23.964;2022-12-08T06:18:48;0.00;95.20
73438;DHT22;62744;56.802;23.964;2022-12-08T06:21:16;0.00;95.40
73438;DHT22;62744;56.802;23.964;2022-12-08T06:23:50;0.00;95.30
73438;DHT22;62744;56.802;23.964;2022-12-08T06:26:18;0.00;95.50
73438;DHT22;62744;56.802;23.964;2022-12-08T06:28:46;0.00;95.70
73438;DHT22;62744;56.802;23.964;2022-12-08T06:31:16;-0.10;96.20
73438;DHT22;62744;56.802;23.964;2022-12-08T06:33:44;0.10;96.20
73438;DHT22;62744;56.802;23.964;2022-12-08T06:36:14;0.00;96.10
73438;DHT22;62744;56.802;23.964;2022-12-08T06:38:43;-0.10;96.40
73438;DHT22;62744;56.802;23.964;2022-12-08T06:41:11;-0.20;96.30
73438;DHT22;62744;56.802;23.964;2022-12-08T06:43:39;-0.10;96.10
73438;DHT22;62744;56.802;23.964;2022-12-08T06:46:10;0.00;95.80
73438;DHT22;62744;56.802;23.964;2022-12-08T06:48:38;0.00;95.80
73438;DHT22;62744;56.802;23.964;2022-12-08T06:51:14;0.00;96.00
73438;DHT22;62744;56.802;23.964;2022-12-08T06:53:43;-0.30;96.20
73438;DHT22;62744;56.802;23.964;2022-12-08T06:56:11;-0.20;96.50
73438;DHT22;62744;56.802;23.964;2022-12-08T06:58:39;-0.10;96.40
73438;DHT22;62744;56.802;23.964;2022-12-08T07:01:09;0.00;96.50
73438;DHT22;62744;56.802;23.964;2022-12-08T07:03:38;0.00;96.70
73438;DHT22;62744;56.802;23.964;2022-12-08T07:06:06;0.00;96.90
73438;DHT22;62744;56.802;23.964;2022-12-08T07:08:34;0.00;96.60
73438;DHT22;62744;56.802;23.964;2022-12-08T07:11:09;0.00;96.50
73438;DHT22;62744;56.802;23.964;2022-12-08T07:13:44;-0.10;96.70
73438;DHT22;62744;56.802;23.964;2022-12-08T07:16:11;0.00;96.80
73438;DHT22;62744;56.802;23.964;2022-12-08T07:18:39;0.00;96.60
73438;DHT22;62744;56.802;23.964;2022-12-08T07:21:11;-0.10;96.60
73438;DHT22;62744;56.802;23.964;2022-12-08T07:23:39;0.10;96.80
73438;DHT22;62744;56.802;23.964;2022-12-08T07:26:10;0.00;96.70
73438;DHT22;62744;56.802;23.964;2022-12-08T07:28:39;0.00;96.30
73438;DHT22;62744;56.802;23.964;2022-12-08T07:31:14;0.10;96.10
73438;DHT22;62744;56.802;23.964;2022-12-08T07:33:43;0.10;95.80
73438;DHT22;62744;56.802;23.964;2022-12-08T07:36:11;0.20;95.50
73438;DHT22;62744;56.802;23.964;2022-12-08T07:38:39;0.40;95.40
73438;DHT22;62744;56.802;23.964;2022-12-08T07:41:14;0.40;95.00
73438;DHT22;62744;56.802;23.964;2022-12-08T07:43:43;0.60;94.70
73438;DHT22;62744;56.802;23.964;2022-12-08T07:46:12;0.60;94.30
73438;DHT22;62744;56.802;23.964;2022-12-08T07:48:41;0.60;93.50
73438;DHT22;62744;56.802;23.964;2022-12-08T07:51:10;0.80;92.80
73438;DHT22;62744;56.802;23.964;2022-12-08T07:53:40;0.70;92.80
73438;DHT22;62744;56.802;23.964;2022-12-08T07:56:13;0.70;93.00
73438;DHT22;62744;56.802;23.964;2022-12-08T07:58:41;0.80;93.00
73438;DHT22;62744;56.802;23.964;2022-12-08T08:01:23;0.70;93.40
73438;DHT22;62744;56.802;23.964;2022-12-08T08:03:52;1.10;93.30
73438;DHT22;62744;56.802;23.964;2022-12-08T08:06:20;0.80;93.40
73438;DHT22;62744;56.802;23.964;2022-12-08T08:08:48;0.90;93.50
73438;DHT22;62744;56.802;23.964;2022-12-08T08:11:15;0.80;93.60
73438;DHT22;62744;56.802;23.964;2022-12-08T08:13:51;1.00;93.20
73438;DHT22;62744;56.802;23.964;2022-12-08T08:16:19;1.00;92.90
73438;DHT22;62744;56.802;23.964;2022-12-08T08:18:48;1.00;92.20
73438;DHT22;62744;56.802;23.964;2022-12-08T08:21:17;1.20;91.60
73438;DHT22;62744;56.802;23.964;2022-12-08T08:24:05;0.80;92.10
73438;DHT22;62744;56.802;23.964;2022-12-08T08:26:33;0.90;91.80
73438;DHT22;62744;56.802;23.964;2022-12-08T08:29:01;0.90;91.70
73438;DHT22;62744;56.802;23.964;2022-12-08T08:31:28;0.90;92.00
73438;DHT22;62744;56.802;23.964;2022-12-08T08:33:56;1.10;92.00
73438;DHT22;62744;56.802;23.964;2022-12-08T08:36:24;1.30;91.70
73438;DHT22;62744;56.802;23.964;2022-12-08T08:38:51;1.00;91.40
73438;DHT22;62744;56.802;23.964;2022-12-08T08:41:18;0.90;91.10
73438;DHT22;62744;56.802;23.964;2022-12-08T08:43:46;1.00;91.00
73438;DHT22;62744;56.802;23.964;2022-12-08T08:46:13;1.10;91.30
73438;DHT22;62744;56.802;23.964;2022-12-08T08:48:41;1.00;90.60
73438;DHT22;62744;56.802;23.964;2022-12-08T08:51:11;1.30;90.90
73438;DHT22;62744;56.802;23.964;2022-12-08T08:53:39;1.40;90.40
73438;DHT22;62744;56.802;23.964;2022-12-08T08:56:14;1.30;90.80
73438;DHT22;62744;56.802;23.964;2022-12-08T08:58:42;1.30;90.70
73438;DHT22;62744;56.802;23.964;2022-12-08T09:01:15;1.30;90.90
73438;DHT22;62744;56.802;23.964;2022-12-08T09:03:43;1.60;90.20
73438;DHT22;62744;56.802;23.964;2022-12-08T09:06:12;1.30;90.20
73438;DHT22;62744;56.802;23.964;2022-12-08T09:08:41;1.30;90.40
73438;DHT22;62744;56.802;23.964;2022-12-08T09:11:09;1.10;90.50
73438;DHT22;62744;56.802;23.964;2022-12-08T09:13:37;1.10;90.30
73438;DHT22;62744;56.802;23.964;2022-12-08T09:16:06;1.10;90.30
73438;DHT22;62744;56.802;23.964;2022-12-08T09:18:34;1.00;90.10
73438;DHT22;62744;56.802;23.964;2022-12-08T09:21:06;0.90;90.40
73438;DHT22;62744;56.802;23.964;2022-12-08T09:23:34;1.10;90.70
73438;DHT22;62744;56.802;23.964;2022-12-08T09:26:03;1.00;90.90
73438;DHT22;62744;56.802;23.964;2022-12-08T09:28:31;1.00;90.60
73438;DHT22;62744;56.802;23.964;2022-12-08T09:30:59;0.80;91.00
73438;DHT22;62744;56.802;23.964;2022-12-08T09:33:27;1.10;90.90
73438;DHT22;62744;56.802;23.964;2022-12-08T09:35:54;0.90;91.10
73438;DHT22;62744;56.802;23.964;2022-12-08T09:38:22;1.00;90.90
73438;DHT22;62744;56.802;23.964;2022-12-08T09:40:52;0.90;90.80
73438;DHT22;62744;56.802;23.964;2022-12-08T09:46:18;1.30;90.90
73438;DHT22;62744;56.802;23.964;2022-12-08T09:48:51;1.30;90.40
73438;DHT22;62744;56.802;23.964;2022-12-08T09:51:25;1.40;90.40
73438;DHT22;62744;56.802;23.964;2022-12-08T09:54:33;1.60;90.40
73438;DHT22;62744;56.802;23.964;2022-12-08T09:57:06;1.80;90.10
73438;DHT22;62744;56.802;23.964;2022-12-08T09:59:36;1.80;89.80
73438;DHT22;62744;56.802;23.964;2022-12-08T10:02:22;1.80;88.80
73438;DHT22;62744;56.802;23.964;2022-12-08T10:04:53;2.00;88.90
73438;DHT22;62744;56.802;23.964;2022-12-08T10:07:32;2.10;88.80
73438;DHT22;62744;56.802;23.964;2022-12-08T10:10:21;1.90;88.70
73438;DHT22;62744;56.802;23.964;2022-12-08T10:15:57;1.70;89.10
73438;DHT22;62744;56.802;23.964;2022-12-08T10:18:32;1.60;89.40
73438;DHT22;62744;56.802;23.964;2022-12-08T10:21:17;1.50;89.90
73438;DHT22;62744;56.802;23.964;2022-12-08T10:23:50;1.30;90.10
73438;DHT22;62744;56.802;23.964;2022-12-08T10:26:20;1.30;90.50
73438;DHT22;62744;56.802;23.964;2022-12-08T10:28:48;1.40;90.60
73438;DHT22;62744;56.802;23.964;2022-12-08T10:31:22;1.40;90.90
73438;DHT22;62744;56.802;23.964;2022-12-08T10:33:58;1.60;90.70
73438;DHT22;62744;56.802;23.964;2022-12-08T10:39:36;1.50;90.40
73438;DHT22;62744;56.802;23.964;2022-12-08T10:45:24;1.60;90.50
73438;DHT22;62744;56.802;23.964;2022-12-08T10:48:02;1.40;90.60
73438;DHT22;62744;56.802;23.964;2022-12-08T10:55:50;1.40;91.30
73438;DHT22;62744;56.802;23.964;2022-12-08T10:58:42;1.80;91.20
73438;DHT22;62744;56.802;23.964;2022-12-08T11:08:57;1.90;90.50
73438;DHT22;62744;56.802;23.964;2022-12-08T11:11:53;1.70;90.80
73438;DHT22;62744;56.802;23.964;2022-12-08T11:14:30;1.50;91.10
73438;DHT22;62744;56.802;23.964;2022-12-08T11:17:16;1.50;91.50
73438;DHT22;62744;56.802;23.964;2022-12-08T11:20:17;1.20;91.80
73438;DHT22;62744;56.802;23.964;2022-12-08T11:22:51;1.20;91.90
73438;DHT22;62744;56.802;23.964;2022-12-08T11:25:20;1.30;92.00
73438;DHT22;62744;56.802;23.964;2022-12-08T11:27:56;1.40;92.40
73438;DHT22;62744;56.802;23.964;2022-12-08T11:30:29;1.20;92.40
73438;DHT22;62744;56.802;23.964;2022-12-08T11:33:10;1.10;92.70
73438;DHT22;62744;56.802;23.964;2022-12-08T11:35:42;1.20;92.50
73438;DHT22;62744;56.802;23.964;2022-12-08T11:38:15;1.10;92.50
73438;DHT22;62744;56.802;23.964;2022-12-08T11:40:54;1.20;92.30
73438;DHT22;62744;56.802;23.964;2022-12-08T11:46:14;1.00;92.90
73438;DHT22;62744;56.802;23.964;2022-12-08T11:49:02;1.00;92.40
73438;DHT22;62744;56.802;23.964;2022-12-08T11:51:39;0.60;92.60
73438;DHT22;62744;56.802;23.964;2022-12-08T11:56:52;0.80;92.60
73438;DHT22;62744;56.802;23.964;2022-12-08T12:01:58;0.70;93.30
73438;DHT22;62744;56.802;23.964;2022-12-08T12:04:40;0.90;93.60
73438;DHT22;62744;56.802;23.964;2022-12-08T12:10:24;0.90;93.10
73438;DHT22;62744;56.802;23.964;2022-12-08T12:20:54;0.50;93.60
73438;DHT22;62744;56.802;23.964;2022-12-08T12:23:41;0.60;93.30
73438;DHT22;62744;56.802;23.964;2022-12-08T12:26:24;0.40;93.40
73438;DHT22;62744;56.802;23.964;2022-12-08T12:31:25;0.40;93.50
73438;DHT22;62744;56.802;23.964;2022-12-08T12:34:06;0.40;93.70
73438;DHT22;62744;56.802;23.964;2022-12-08T12:36:50;0.30;93.60
73438;DHT22;62744;56.802;23.964;2022-12-08T12:39:21;0.20;93.30
73438;DHT22;62744;56.802;23.964;2022-12-08T12:41:58;0.40;92.80
73438;DHT22;62744;56.802;23.964;2022-12-08T12:47:01;0.20;93.50
73438;DHT22;62744;56.802;23.964;2022-12-08T12:54:41;0.00;93.90
73438;DHT22;62744;56.802;23.964;2022-12-08T13:05:30;-0.10;94.50
73438;DHT22;62744;56.802;23.964;2022-12-08T13:08:05;0.00;94.90
73438;DHT22;62744;56.802;23.964;2022-12-08T13:10:37;0.10;94.50
73438;DHT22;62744;56.802;23.964;2022-12-08T13:20:47;-0.40;94.00
73438;DHT22;62744;56.802;23.964;2022-12-08T13:26:25;-0.50;94.70
73438;DHT22;62744;56.802;23.964;2022-12-08T13:31:47;-0.60;94.90
73438;DHT22;62744;56.802;23.964;2022-12-08T13:37:28;-0.70;94.80
73438;DHT22;62744;56.802;23.964;2022-12-08T13:40:11;-0.80;95.20
73438;DHT22;62744;56.802;23.964;2022-12-08T13:45:24;-1.00;95.60
73438;DHT22;62744;56.802;23.964;2022-12-08T13:48:15;-1.00;95.60
73438;DHT22;62744;56.802;23.964;2022-12-08T13:51:20;-1.00;95.70
73438;DHT22;62744;56.802;23.964;2022-12-08T13:54:28;-1.20;95.80
73438;DHT22;62744;56.802;23.964;2022-12-08T13:57:32;-1.30;95.40
73438;DHT22;62744;56.802;23.964;2022-12-08T14:00:13;-1.10;95.60
73438;DHT22;62744;56.802;23.964;2022-12-08T14:02:47;-1.40;95.20
73438;DHT22;62744;56.802;23.964;2022-12-08T14:05:17;-1.30;95.40
73438;DHT22;62744;56.802;23.964;2022-12-08T14:08:23;-1.40;95.70
73438;DHT22;62744;56.802;23.964;2022-12-08T14:11:37;-1.50;95.70
73438;DHT22;62744;56.802;23.964;2022-12-08T14:14:16;-1.30;96.20
73438;DHT22;62744;56.802;23.964;2022-12-08T14:17:19;-1.50;96.30
73438;DHT22;62744;56.802;23.964;2022-12-08T14:20:03;-1.50;96.20
73438;DHT22;62744;56.802;23.964;2022-12-08T14:22:35;-1.50;96.40
73438;DHT22;62744;56.802;23.964;2022-12-08T14:25:04;-1.40;96.50
73438;DHT22;62744;56.802;23.964;2022-12-08T14:27:34;-1.60;95.90
73438;DHT22;62744;56.802;23.964;2022-12-08T14:30:24;-1.50;96.00
73438;DHT22;62744;56.802;23.964;2022-12-08T14:32:58;-1.50;95.30
73438;DHT22;62744;56.802;23.964;2022-12-08T14:35:34;-1.60;95.20
73438;DHT22;62744;56.802;23.964;2022-12-08T14:38:13;-1.70;95.00
73438;DHT22;62744;56.802;23.964;2022-12-08T14:40:46;-1.90;95.10
73438;DHT22;62744;56.802;23.964;2022-12-08T14:43:18;-1.90;95.70
73438;DHT22;62744;56.802;23.964;2022-12-08T14:45:47;-2.00;95.40
73438;DHT22;62744;56.802;23.964;2022-12-08T14:53:58;-1.70;95.80
73438;DHT22;62744;56.802;23.964;2022-12-08T14:56:36;-1.80;95.60
73438;DHT22;62744;56.802;23.964;2022-12-08T15:01:42;-1.90;95.20
73438;DHT22;62744;56.802;23.964;2022-12-08T15:12:20;-2.20;95.80
73438;DHT22;62744;56.802;23.964;2022-12-08T15:14:59;-2.20;95.60
73438;DHT22;62744;56.802;23.964;2022-12-08T15:17:41;-2.40;95.80
73438;DHT22;62744;56.802;23.964;2022-12-08T15:23:09;-2.40;96.60
73438;DHT22;62744;56.802;23.964;2022-12-08T15:25:42;-2.20;97.30
73438;DHT22;62744;56.802;23.964;2022-12-08T15:28:14;-2.10;97.80
73438;DHT22;62744;56.802;23.964;2022-12-08T15:30:43;-1.90;97.80
73438;DHT22;62744;56.802;23.964;2022-12-08T15:33:10;-2.00;97.70
73438;DHT22;62744;56.802;23.964;2022-12-08T15:35:38;-1.80;98.10
73438;DHT22;62744;56.802;23.964;2022-12-08T15:38:34;-1.80;98.30
73438;DHT22;62744;56.802;23.964;2022-12-08T15:41:04;-1.70;98.30
73438;DHT22;62744;56.802;23.964;2022-12-08T15:43:39;-1.60;97.00
73438;DHT22;62744;56.802;23.964;2022-12-08T15:46:06;-1.40;96.80
73438;DHT22;62744;56.802;23.964;2022-12-08T15:48:36;-1.60;96.40
73438;DHT22;62744;56.802;23.964;2022-12-08T15:51:04;-1.80;96.30
73438;DHT22;62744;56.802;23.964;2022-12-08T15:53:31;-1.70;96.20
73438;DHT22;62744;56.802;23.964;2022-12-08T15:56:04;-1.80;96.50
73438;DHT22;62744;56.802;23.964;2022-12-08T15:58:53;-1.70;96.60
73438;DHT22;62744;56.802;23.964;2022-12-08T16:01:23;-1.80;96.70
73438;DHT22;62744;56.802;23.964;2022-12-08T16:03:52;-1.60;96.90
73438;DHT22;62744;56.802;23.964;2022-12-08T16:06:43;-1.60;96.60
73438;DHT22;62744;56.802;23.964;2022-12-08T16:09:40;-1.50;97.00
73438;DHT22;62744;56.802;23.964;2022-12-08T16:12:23;-1.40;97.20
73438;DHT22;62744;56.802;23.964;2022-12-08T16:15:32;-1.50;97.10
73438;DHT22;62744;56.802;23.964;2022-12-08T16:18:25;0.00;99.90
73438;DHT22;62744;56.802;23.964;2022-12-08T16:20:53;0.00;99.90
73438;DHT22;62744;56.802;23.964;2022-12-08T16:23:41;-0.30;96.00
73438;DHT22;62744;56.802;23.964;2022-12-08T16:26:16;-0.60;95.10
73438;DHT22;62744;56.802;23.964;2022-12-08T16:29:05;-0.70;95.10
73438;DHT22;62744;56.802;23.964;2022-12-08T16:31:34;-0.80;95.10
73438;DHT22;62744;56.802;23.964;2022-12-08T16:34:01;-1.00;95.70
73438;DHT22;62744;56.802;23.964;2022-12-08T16:36:29;-1.10;95.60
73438;DHT22;62744;56.802;23.964;2022-12-08T16:38:57;-1.00;95.70
73438;DHT22;62744;56.802;23.964;2022-12-08T16:41:24;-1.00;95.90
73438;DHT22;62744;56.802;23.964;2022-12-08T16:44:10;-0.80;95.60
73438;DHT22;62744;56.802;23.964;2022-12-08T16:46:38;-0.90;95.80
73438;DHT22;62744;56.802;23.964;2022-12-08T16:49:08;-1.20;96.00
73438;DHT22;62744;56.802;23.964;2022-12-08T16:51:35;-0.90;96.30
73438;DHT22;62744;56.802;23.964;2022-12-08T16:54:03;-1.00;95.90
73438;DHT22;62744;56.802;23.964;2022-12-08T16:56:31;-0.90;96.00
73438;DHT22;62744;56.802;23.964;2022-12-08T16:59:00;-1.00;96.10
73438;DHT22;62744;56.802;23.964;2022-12-08T17:01:28;-0.80;96.20
73438;DHT22;62744;56.802;23.964;2022-12-08T17:03:56;-0.80;96.00
73438;DHT22;62744;56.802;23.964;2022-12-08T17:06:45;-1.00;96.50
73438;DHT22;62744;56.802;23.964;2022-12-08T17:09:13;-0.80;96.50
73438;DHT22;62744;56.802;23.964;2022-12-08T17:11:41;-0.90;96.70
73438;DHT22;62744;56.802;23.964;2022-12-08T17:14:12;-0.90;97.00
73438;DHT22;62744;56.802;23.964;2022-12-08T17:16:41;-0.70;97.20
73438;DHT22;62744;56.802;23.964;2022-12-08T17:19:11;-0.70;97.00
73438;DHT22;62744;56.802;23.964;2022-12-08T17:21:45;-0.50;96.90
73438;DHT22;62744;56.802;23.964;2022-12-08T17:24:13;-0.70;97.10
73438;DHT22;62744;56.802;23.964;2022-12-08T17:26:47;-0.40;97.20
73438;DHT22;62744;56.802;23.964;2022-12-08T17:29:16;-0.40;97.40
73438;DHT22;62744;56.802;23.964;2022-12-08T17:31:45;-0.50;98.10
73438;DHT22;62744;56.802;23.964;2022-12-08T17:34:14;-0.40;97.90
73438;DHT22;62744;56.802;23.964;2022-12-08T17:36:42;-0.30;97.50
73438;DHT22;62744;56.802;23.964;2022-12-08T17:39:09;-0.40;97.50
73438;DHT22;62744;56.802;23.964;2022-12-08T17:41:44;-0.40;97.70
73438;DHT22;62744;56.802;23.964;2022-12-08T17:44:15;-0.20;97.60
73438;DHT22;62744;56.802;23.964;2022-12-08T17:46:43;-0.40;97.80
73438;DHT22;62744;56.802;23.964;2022-12-08T17:49:22;-0.20;98.00
73438;DHT22;62744;56.802;23.964;2022-12-08T17:51:52;-0.10;98.00
73438;DHT22;62744;56.802;23.964;2022-12-08T17:54:20;0.00;97.80
73438;DHT22;62744;56.802;23.964;2022-12-08T17:56:48;-0.20;98.00
73438;DHT22;62744;56.802;23.964;2022-12-08T17:59:16;-0.20;97.60
73438;DHT22;62744;56.802;23.964;2022-12-08T18:01:46;0.00;97.70
73438;DHT22;62744;56.802;23.964;2022-12-08T18:04:14;-0.20;97.70
73438;DHT22;62744;56.802;23.964;2022-12-08T18:06:48;-0.20;97.60
73438;DHT22;62744;56.802;23.964;2022-12-08T18:09:19;-0.40;97.50
73438;DHT22;62744;56.802;23.964;2022-12-08T18:11:49;-0.30;97.60